Cape Lisburne LRRS, AK

4:27 PM AKDT on September 23, 2014 (GMT -0800)
Cape Lisburne LRRS | Change Station
CLOSE
Current Station
Airport
Location: Cape Lisburne,
Elevation: 10 ft
Nearby Weather Stations

Elev 10 ft 68.88 °N, 166.13 °W | Updated 32 minutes ago

Mostly Cloudy
Mostly Cloudy
39 °F
Feels Like 30 °F
N
15
Wind Variable Wind from WSW
Gusts 18 mph

Today
High -- | Low -- °F
--% Chance of Precip.
Yesterday
High -- | Low -- °F
Precip. -- in
8:49 AM 9:01 PM
Waning Crescent, 0% visible
Pressure 29.87 in
Visibility 10.0 miles
Clouds Mostly Cloudy 3000 ft
Windchill 30 °F
Dew Point 29 °F
Humidity 68%
Rainfall 0.06 in
Snow Depth 0 in , 1 in , 0 in
UV 1 out of 12
Pollen Not available.
Air Quality Not available.
Flu Activity Not available.
METAR PALU 232355Z AUTO 24013G16KT 220V280 10SM BKN030 04/M02 A2987 RMK AO2 SLP114 60004 T00381017 10039 20008 51005

More Conditions Fewer Conditions

Pressure 29.87 in
Visibility 10.0 miles
Clouds Mostly Cloudy 3000 ft
Windchill 30 °F
Dew Point 29 °F
Humidity 68%
Rainfall 0.06 in
Snow Depth 0 in , 1 in , 0 in
UV 1 out of 12
Pollen Not available.
Air Quality Not available.
Flu Activity Not available.
METAR PALU 232355Z AUTO 24013G16KT 220V280 10SM BKN030 04/M02 A2987 RMK AO2 SLP114 60004 T00381017 10039 20008 51005

More Conditions Fewer Conditions

10-Day Weather Forecast

Almanac

Astronomy

Sep. 23, 2014 Rise Set
Actual Time 8:49 AM AKDT 9:01 PM AKDT
Civil Twilight 7:51 AM AKDT 9:59 PM AKDT
Nautical Twilight 6:38 AM AKDT 11:11 PM AKDT
Astronomical Twilight 5:04 AM AKDT 12:43 AM AKDT
Moon 8:28 AM AKDT (9/23) 8:32 PM AKDT (9/23)
Length of Visible Light 14h 07m
Length of Day
12h 11m
Tomorrow will be 8m 4s shorter.
Waning Crescent, 0% of the Moon is Illuminated
Today
Waning Crescent
Sep 24
New
Oct 1
First Quarter
Oct 8
Full
Oct 15
Last Quarter

Today's Extremes

State Highs State Lows

Community

WunderPhotos

Upload Photos

1,755,828 photos uploaded!

WunderBlogs® & News

Nearby

Snow Depth

Station Depth Elevation
Granite Creek 0 in 1240 ft
Grandview 1 in 1100 ft
Pargon Creek 0 in 300 ft
Munson Ridge 1 in 3100 ft
Eagle Summit 1 in 3650 ft

Earthquake Activity

City Distance Mag. Time & Date
No recent earthquake activity has been reported nearby.
Minimum magnitude displayed is 2.5.

Coastal Water Temperatures

Place Temperature
No Stations Reporting

Nearby Weather Stations